Time;durP1;ratioP1;P1;durP2;ratioP2;P2;SDS_P1;SDS_P2;PMS_P1;PMS_P2;Temp;Humidity;BMP_temperature;BMP_pressure;BME280_temperature;BME280_humidity;BME280_pressure;Samples;Min_cycle;Max_cycle;Signal;HPM_P1;HPM_P2
2021/05/05 00:01:31;;;;;;;4.70;2.30;;;;;;;7.75;64.14;98764.00;5074525;28;20052;-76
2021/05/05 00:03:57;;;;;;;5.28;2.22;;;;;;;7.77;64.15;98763.66;5073576;28;20052;-76
2021/05/05 00:06:24;;;;;;;3.22;1.90;;;;;;;7.83;63.84;98754.81;5073845;28;20052;-76
2021/05/05 00:08:51;;;;;;;3.22;1.80;;;;;;;7.89;63.93;98758.97;5074541;28;20493;-76
2021/05/05 00:11:18;;;;;;;3.47;1.85;;;;;;;7.91;63.24;98761.41;5073785;28;20071;-77
2021/05/05 00:13:45;;;;;;;6.28;2.40;;;;;;;7.99;63.64;98752.22;5073353;28;20052;-76
2021/05/05 00:16:13;;;;;;;4.25;2.30;;;;;;;7.97;63.21;98754.53;5074455;28;20052;-76
2021/05/05 00:18:41;;;;;;;4.97;2.17;;;;;;;7.94;63.87;98752.44;5074345;28;20052;-77
2021/05/05 00:21:08;;;;;;;3.42;1.85;;;;;;;7.95;63.49;98751.28;5073027;28;20433;-76
2021/05/05 00:23:35;;;;;;;4.30;2.28;;;;;;;7.98;63.14;98753.38;5073272;28;20071;-76
2021/05/05 00:26:05;;;;;;;4.43;2.30;;;;;;;8.05;63.18;98758.38;5074106;28;20044;-76
2021/05/05 00:28:32;;;;;;;5.18;2.05;;;;;;;8.12;62.71;98747.53;5074480;28;20385;-76
2021/05/05 00:30:59;;;;;;;5.57;2.30;;;;;;;8.10;63.26;98747.88;5073961;28;20056;-76
2021/05/05 00:33:26;;;;;;;3.85;2.38;;;;;;;8.14;63.41;98748.00;5073886;28;20063;-76
2021/05/05 00:35:53;;;;;;;6.15;2.42;;;;;;;8.17;62.77;98752.06;5073752;28;20052;-76
2021/05/05 00:38:20;;;;;;;4.53;2.20;;;;;;;8.17;63.60;98752.91;5074047;28;20055;-76
2021/05/05 00:40:47;;;;;;;5.95;2.10;;;;;;;8.18;62.73;98742.59;5074083;28;20056;-76
2021/05/05 00:43:14;;;;;;;3.72;2.13;;;;;;;8.16;62.95;98744.91;5073825;28;20389;-76
2021/05/05 00:45:41;;;;;;;8.02;2.47;;;;;;;8.17;62.77;98752.06;5073442;28;20079;-76
2021/05/05 00:48:08;;;;;;;4.85;2.20;;;;;;;8.18;62.94;98764.78;5073882;28;20100;-76
2021/05/05 00:50:36;;;;;;;3.47;1.85;;;;;;;8.16;62.86;98761.53;5074135;28;20453;-76
2021/05/05 00:53:03;;;;;;;3.72;2.20;;;;;;;8.10;62.50;98747.88;5073731;28;20055;-76
2021/05/05 00:55:30;;;;;;;5.82;2.30;;;;;;;8.07;62.62;98751.34;5073342;28;20071;-76
2021/05/05 00:57:57;;;;;;;5.10;1.88;;;;;;;8.06;62.37;98763.59;5074130;28;20052;-76
2021/05/05 01:00:25;;;;;;;3.35;1.85;;;;;;;8.01;62.44;98755.47;5073382;28;20158;-76
2021/05/05 01:02:52;;;;;;;3.33;1.60;;;;;;;7.97;62.56;98748.19;5073679;28;20053;-76
2021/05/05 01:05:19;;;;;;;5.03;1.80;;;;;;;7.96;63.22;98750.16;5073680;28;20063;-76
2021/05/05 01:07:48;;;;;;;3.53;1.90;;;;;;;7.96;62.84;98754.84;5073192;28;20389;-76
2021/05/05 01:10:15;;;;;;;3.60;1.60;;;;;;;7.95;62.58;98745.72;5073343;28;20052;-76
2021/05/05 01:12:42;;;;;;;3.42;1.65;;;;;;;7.96;62.00;98747.38;5073334;28;20049;-76
2021/05/05 01:15:11;;;;;;;4.22;1.60;;;;;;;7.90;62.43;98748.72;5073100;28;20369;-76
2021/05/05 01:17:39;;;;;;;3.38;1.70;;;;;;;7.88;62.59;98748.25;5073630;28;20044;-76
2021/05/05 01:20:07;;;;;;;5.07;1.90;;;;;;;7.84;61.71;98750.06;5073354;28;20504;-76
2021/05/05 01:22:35;;;;;;;4.47;1.83;;;;;;;7.80;61.82;98738.84;5073818;28;20048;-76
2021/05/05 01:25:03;;;;;;;2.85;1.73;;;;;;;7.85;62.44;98740.59;5073607;28;20059;-76
2021/05/05 01:27:29;;;;;;;3.17;1.80;;;;;;;7.81;62.26;98756.28;5073886;28;20052;-76
2021/05/05 01:30:03;;;;;;;4.38;1.90;;;;;;;7.87;61.65;98754.94;5074097;28;20056;-76
2021/05/05 01:32:31;;;;;;;3.30;1.70;;;;;;;7.89;61.68;98752.63;5074074;28;20175;-76
2021/05/05 01:35:03;;;;;;;3.55;1.55;;;;;;;7.93;61.60;98751.59;5073308;28;20056;-76
2021/05/05 01:37:30;;;;;;;3.67;2.20;;;;;;;8.02;61.82;98747.94;5072634;28;20048;-76
2021/05/05 01:40:00;;;;;;;4.57;2.30;;;;;;;8.08;61.24;98754.91;5073286;28;20076;-76
2021/05/05 01:42:27;;;;;;;3.05;1.50;;;;;;;8.07;61.05;98756.09;5073588;28;20049;-76
2021/05/05 01:44:54;;;;;;;3.20;1.98;;;;;;;8.07;61.37;98756.88;5073780;28;20504;-76
2021/05/05 01:47:21;;;;;;;5.82;2.30;;;;;;;8.14;60.88;98765.44;5074107;28;20048;-76
2021/05/05 01:49:51;;;;;;;3.83;1.90;;;;;;;8.15;61.13;98757.97;5073343;28;20067;-76
2021/05/05 01:52:19;;;;;;;3.42;2.00;;;;;;;8.02;60.94;98759.03;5073214;28;20393;-76
2021/05/05 01:54:47;;;;;;;2.67;1.90;;;;;;;7.95;61.10;98751.28;5072372;28;20052;-76
2021/05/05 01:57:35;;;;;;;3.28;1.80;;;;;;;7.87;61.08;98743.84;5073387;28;20413;-76
2021/05/05 02:00:05;;;;;;;3.28;2.20;;;;;;;7.86;61.46;98748.59;5073138;28;20056;-75
2021/05/05 02:02:32;;;;;;;4.03;2.35;;;;;;;7.91;61.36;98747.56;5073554;28;20044;-76
2021/05/05 02:05:04;;;;;;;3.72;2.10;;;;;;;7.95;61.10;98745.72;5073206;28;20050;-76
2021/05/05 02:07:31;;;;;;;5.47;2.33;;;;;;;7.98;61.36;98745.06;5072996;28;20048;-76
2021/05/05 02:09:58;;;;;;;3.00;2.22;;;;;;;8.02;61.21;98747.94;5073367;28;20389;-77
2021/05/05 02:12:28;;;;;;;3.40;1.90;;;;;;;7.97;61.07;98746.22;5073159;28;20064;-76
2021/05/05 02:14:55;;;;;;;3.17;1.80;;;;;;;8.03;60.83;98741.28;5073089;28;20480;-76
2021/05/05 02:17:24;;;;;;;2.90;1.98;;;;;;;8.00;61.14;98742.78;5073207;28;20057;-76
2021/05/05 02:19:51;;;;;;;2.80;1.80;;;;;;;7.97;60.70;98732.34;5074343;28;20063;-76
2021/05/05 02:22:21;;;;;;;3.00;1.73;;;;;;;8.00;60.48;98734.44;5076590;28;20063;-76
2021/05/05 02:24:48;;;;;;;3.17;1.90;;;;;;;8.05;60.93;98730.66;5076569;28;20053;-76
2021/05/05 02:27:15;;;;;;;4.00;2.38;;;;;;;8.05;61.15;98745.31;5076936;28;20481;-76
2021/05/05 02:29:43;;;;;;;3.20;1.90;;;;;;;8.07;60.60;98748.56;5076987;28;20052;-76
2021/05/05 02:32:12;;;;;;;5.10;2.63;;;;;;;8.11;60.57;98748.69;5075946;28;20045;-76
2021/05/05 02:34:40;;;;;;;9.35;3.55;;;;;;;7.99;66.39;98762.50;5076562;28;20056;-77
2021/05/05 02:37:09;;;;;;;5.72;4.15;;;;;;;7.84;69.45;98750.06;5076327;28;20056;-76
2021/05/05 02:39:36;;;;;;;7.45;4.28;;;;;;;7.77;69.69;98744.25;5076770;28;20450;-76
2021/05/05 02:42:03;;;;;;;6.55;3.70;;;;;;;7.63;69.20;98737.03;5075731;28;20056;-76
2021/05/05 02:44:30;;;;;;;6.63;3.72;;;;;;;7.54;69.52;98744.59;5076504;28;20060;-76
2021/05/05 02:46:59;;;;;;;6.57;4.72;;;;;;;7.41;69.52;98751.19;5075789;28;20057;-76
2021/05/05 02:49:25;;;;;;;8.88;4.70;;;;;;;7.34;69.61;98735.09;5076301;28;20053;-76
2021/05/05 02:51:55;;;;;;;7.38;4.70;;;;;;;7.31;69.89;98733.81;5076352;28;20402;-76
2021/05/05 02:54:24;;;;;;;5.70;4.70;;;;;;;7.27;69.76;98737.59;5075757;28;20060;-76
2021/05/05 02:56:51;;;;;;;8.25;5.22;;;;;;;7.17;70.05;98744.34;5080076;28;20056;-75
2021/05/05 02:59:31;;;;;;;6.57;4.03;;;;;;;7.10;70.03;98739.31;5082899;28;20052;-75
2021/05/05 03:02:08;;;;;;;7.05;4.13;;;;;;;6.99;69.41;98746.41;5088379;28;20060;-75
2021/05/05 03:04:40;;;;;;;4.38;3.20;;;;;;;6.98;70.12;98735.66;5088324;28;20066;-77
2021/05/05 03:07:11;;;;;;;5.10;4.00;;;;;;;6.94;70.50;98740.22;5089089;28;20051;-75
2021/05/05 03:09:45;;;;;;;5.45;4.00;;;;;;;6.89;70.18;98733.72;5086544;28;20063;-75
2021/05/05 03:12:14;;;;;;;9.80;4.22;;;;;;;6.90;70.25;98734.53;5093503;22;20041;-61
2021/05/05 03:14:41;;;;;;;9.13;3.28;;;;;;;6.84;69.56;98738.63;5054175;28;20060;-60
2021/05/05 03:17:10;;;;;;;3.75;3.10;;;;;;;6.82;69.61;98744.50;5054073;28;20057;-61
2021/05/05 03:19:37;;;;;;;6.80;3.72;;;;;;;6.79;69.50;98744.38;5054472;28;20052;-61
2021/05/05 03:22:04;;;;;;;3.60;2.92;;;;;;;6.77;68.50;98754.94;5054078;28;20057;-59
2021/05/05 03:24:31;;;;;;;4.45;3.20;;;;;;;6.73;68.75;98762.28;5044008;28;20053;-60
2021/05/05 03:26:58;;;;;;;3.72;2.70;;;;;;;6.69;68.49;98757.41;5034084;28;20041;-61
2021/05/05 03:29:28;;;;;;;5.95;3.42;;;;;;;6.70;67.89;98758.22;5034058;28;20053;-61
2021/05/05 03:31:56;;;;;;;3.65;2.65;;;;;;;6.81;68.39;98755.91;5033181;28;20058;-60
2021/05/05 03:34:24;;;;;;;5.45;2.70;;;;;;;6.86;67.44;98762.06;5042730;28;20432;-61
2021/05/05 03:36:51;;;;;;;3.78;2.88;;;;;;;6.98;67.60;98746.72;5053718;28;20064;-61
2021/05/05 03:39:18;;;;;;;4.75;3.10;;;;;;;7.07;67.23;98755.78;5053397;28;20060;-61
2021/05/05 03:41:45;;;;;;;5.35;3.22;;;;;;;7.08;67.01;98762.97;5053599;28;20053;-60
2021/05/05 03:44:12;;;;;;;3.58;3.00;;;;;;;7.17;66.57;98755.41;5053675;28;20406;-61
2021/05/05 03:46:38;;;;;;;5.68;3.35;;;;;;;7.24;66.13;98744.59;5053387;28;20057;-61
2021/05/05 03:49:06;;;;;;;4.90;3.75;;;;;;;7.17;66.70;98747.09;5049478;28;20045;-62
2021/05/05 03:51:34;;;;;;;6.07;4.47;;;;;;;7.17;66.70;98749.88;5033762;28;20057;-62
2021/05/05 03:54:01;;;;;;;5.72;4.50;;;;;;;7.21;66.39;98745.28;5033618;28;20053;-62
2021/05/05 03:56:28;;;;;;;5.00;4.00;;;;;;;7.27;65.84;98743.16;5033572;28;20054;-62
2021/05/05 03:58:55;;;;;;;5.30;4.63;;;;;;;7.29;65.88;98747.19;5050626;28;20049;-62
2021/05/05 04:01:22;;;;;;;6.70;5.18;;;;;;;7.30;65.88;98739.69;5053588;28;20057;-61
2021/05/05 04:03:51;;;;;;;7.40;4.82;;;;;;;7.24;66.30;98747.38;5053316;28;20068;-62
2021/05/05 04:06:18;;;;;;;6.80;5.20;;;;;;;7.22;66.38;98741.34;5053748;28;20064;-61
2021/05/05 04:08:46;;;;;;;7.13;4.97;;;;;;;7.17;66.49;98747.09;5037767;28;20049;-62
2021/05/05 04:11:12;;;;;;;6.82;5.45;;;;;;;7.19;66.79;98741.25;5033064;28;20486;-62
2021/05/05 04:13:39;;;;;;;6.35;5.72;;;;;;;7.24;66.62;98741.84;5033226;28;20076;-62
2021/05/05 04:16:06;;;;;;;7.63;5.60;;;;;;;7.26;66.46;98756.16;5034390;28;20050;-62
2021/05/05 04:18:33;;;;;;;7.72;5.25;;;;;;;7.27;66.28;98749.50;5032992;28;20068;-62
2021/05/05 04:21:05;;;;;;;6.15;4.50;;;;;;;7.30;66.63;98745.22;5033172;28;20053;-63
2021/05/05 04:23:33;;;;;;;5.38;3.38;;;;;;;7.34;65.56;98759.22;5033605;28;20045;-63
2021/05/05 04:26:01;;;;;;;6.35;4.35;;;;;;;7.38;65.50;98755.44;5032817;28;20049;-63
2021/05/05 04:28:29;;;;;;;5.47;4.93;;;;;;;7.47;65.92;98753.41;5032865;28;20049;-61
2021/05/05 04:30:56;;;;;;;6.85;5.13;;;;;;;7.57;65.76;98768.84;5032896;28;20060;-63
2021/05/05 04:33:23;;;;;;;6.90;4.65;;;;;;;7.64;65.67;98762.78;5032894;28;20470;-60
2021/05/05 04:35:50;;;;;;;7.70;4.70;;;;;;;7.62;65.47;98776.16;5052736;28;20064;-61
2021/05/05 04:38:17;;;;;;;6.32;5.20;;;;;;;7.69;64.52;98770.91;5052754;28;20063;-63
2021/05/05 04:40:44;;;;;;;5.93;4.75;;;;;;;7.77;64.76;98775.56;5052797;28;20062;-61
2021/05/05 04:43:11;;;;;;;9.27;5.50;;;;;;;7.83;64.81;98773.38;5033733;28;20049;-61
2021/05/05 04:45:38;;;;;;;6.30;4.97;;;;;;;7.85;63.82;98783.00;5051103;28;20049;-61
2021/05/05 04:48:06;;;;;;;8.80;4.95;;;;;;;7.81;63.88;98778.47;5052940;28;20486;-59
2021/05/05 04:50:33;;;;;;;7.00;5.32;;;;;;;7.81;64.28;98782.06;5052388;28;20056;-61
2021/05/05 04:53:00;;;;;;;5.85;4.68;;;;;;;7.86;63.34;98801.25;5052670;28;20421;-62
2021/05/05 04:55:27;;;;;;;7.35;5.32;;;;;;;7.94;64.53;98785.72;5044565;28;20075;-62
2021/05/05 04:57:54;;;;;;;7.32;5.20;;;;;;;8.01;64.35;98797.06;5040213;28;20060;-61
2021/05/05 05:00:23;;;;;;;6.57;4.88;;;;;;;8.03;64.09;98803.06;5032694;28;20160;-62
2021/05/05 05:02:50;;;;;;;7.30;6.45;;;;;;;7.99;65.26;98796.59;5032626;28;20053;-60
2021/05/05 05:05:17;;;;;;;7.93;5.68;;;;;;;8.01;65.24;98805.38;5048172;28;20057;-61
2021/05/05 05:07:43;;;;;;;10.18;6.38;;;;;;;8.02;65.08;98798.69;5052205;28;20064;-61
2021/05/05 05:10:14;;;;;;;8.02;4.68;;;;;;;8.02;64.70;98804.25;5052568;28;20053;-61
2021/05/05 05:12:41;;;;;;;7.15;5.60;;;;;;;8.08;64.55;98808.44;5035153;28;20061;-61
2021/05/05 05:15:08;;;;;;;7.85;5.70;;;;;;;8.06;64.17;98810.72;5032995;28;20046;-62
2021/05/05 05:17:38;;;;;;;7.15;5.35;;;;;;;8.17;63.99;98840.81;5040152;28;20054;-62
2021/05/05 05:20:08;;;;;;;9.27;6.68;;;;;;;8.10;63.51;98825.50;5042420;28;20045;-61
2021/05/05 05:22:36;;;;;;;9.43;6.35;;;;;;;8.17;63.98;98829.72;5038726;28;20052;-61
2021/05/05 05:25:03;;;;;;;11.40;7.35;;;;;;;8.17;63.21;98825.00;5038254;28;20060;-61
2021/05/05 05:27:30;;;;;;;10.65;7.00;;;;;;;8.19;63.64;98830.19;5032496;28;20052;-61
2021/05/05 05:29:58;;;;;;;8.40;6.07;;;;;;;8.16;63.14;98830.88;5038485;28;20054;-61
2021/05/05 05:32:25;;;;;;;10.10;6.78;;;;;;;8.18;62.75;98821.06;5039772;28;20056;-62
2021/05/05 05:34:53;;;;;;;10.65;5.97;;;;;;;8.24;62.65;98839.13;5033495;28;20049;-62
2021/05/05 05:37:22;;;;;;;7.97;6.03;;;;;;;8.32;62.73;98832.69;5038156;28;20060;-62
2021/05/05 05:39:49;;;;;;;7.45;5.80;;;;;;;8.41;61.66;98840.97;5037382;28;20060;-62
2021/05/05 05:42:16;;;;;;;11.00;7.15;;;;;;;8.54;61.66;98845.41;5040752;28;20054;-62
2021/05/05 05:44:43;;;;;;;8.90;5.95;;;;;;;8.60;61.53;98845.19;5028268;28;20041;-62
2021/05/05 05:47:09;;;;;;;8.45;6.10;;;;;;;8.62;61.15;98849.25;5031597;28;20059;-62
2021/05/05 05:49:36;;;;;;;7.50;5.72;;;;;;;8.66;61.56;98852.97;5037708;28;20057;-62
2021/05/05 05:52:05;;;;;;;6.65;5.35;;;;;;;8.70;61.63;98853.09;5050864;28;20076;-62
2021/05/05 05:54:32;;;;;;;10.43;6.03;;;;;;;8.69;61.27;98848.69;5049125;28;20498;-62
2021/05/05 05:56:59;;;;;;;8.60;6.30;;;;;;;8.71;61.33;98849.16;5038436;28;20061;-62
2021/05/05 05:59:26;;;;;;;7.07;5.55;;;;;;;8.76;61.26;98856.47;5046383;28;20045;-62
2021/05/05 06:01:53;;;;;;;6.45;4.90;;;;;;;8.83;60.53;98857.53;5042538;28;20060;-62
2021/05/05 06:04:20;;;;;;;7.47;5.75;;;;;;;8.84;61.60;98883.31;5035549;28;20060;-62
2021/05/05 06:06:47;;;;;;;7.80;6.07;;;;;;;8.85;61.39;98862.75;5039449;28;20044;-62
2021/05/05 06:09:15;;;;;;;7.13;5.75;;;;;;;8.82;61.61;98872.59;5047168;28;20405;-62
2021/05/05 06:11:41;;;;;;;7.72;5.25;;;;;;;8.70;61.43;98870.56;5048826;28;20042;-62
2021/05/05 06:14:08;;;;;;;6.13;4.75;;;;;;;8.65;61.85;98870.78;5035244;28;20045;-63
2021/05/05 06:16:35;;;;;;;5.68;4.13;;;;;;;8.73;62.00;98878.22;5035845;28;20057;-62
2021/05/05 06:19:03;;;;;;;7.43;4.03;;;;;;;8.78;61.92;98876.38;5042642;28;20402;-62
2021/05/05 06:21:31;;;;;;;3.95;2.70;;;;;;;8.62;61.46;98890.09;5045173;28;20053;-62
2021/05/05 06:24:00;;;;;;;2.95;2.20;;;;;;;8.48;61.06;98891.19;5041309;28;20049;-62
2021/05/05 06:26:27;;;;;;;3.47;1.88;;;;;;;8.71;60.52;98888.03;5040854;28;20056;-62
2021/05/05 06:28:54;;;;;;;4.30;2.60;;;;;;;8.80;60.41;98891.56;5035405;28;20054;-62
2021/05/05 06:31:21;;;;;;;4.97;2.70;;;;;;;8.82;60.39;98900.34;5034671;28;20064;-61
2021/05/05 06:33:48;;;;;;;4.60;3.17;;;;;;;8.84;60.46;98899.97;5035740;28;20064;-62
2021/05/05 06:36:15;;;;;;;5.10;2.55;;;;;;;8.76;59.92;98904.50;5034666;28;20049;-61
2021/05/05 06:38:41;;;;;;;4.05;3.40;;;;;;;8.80;61.06;98899.88;5034332;28;20060;-62
2021/05/05 06:41:08;;;;;;;3.92;3.53;;;;;;;8.95;60.42;98901.19;5034592;28;20380;-61
2021/05/05 06:43:36;;;;;;;5.47;4.30;;;;;;;8.91;60.57;98898.28;5021237;28;20367;-61
2021/05/05 06:46:03;;;;;;;5.40;4.80;;;;;;;9.16;60.74;98898.38;5054640;28;20060;-62
2021/05/05 06:48:30;;;;;;;6.57;5.50;;;;;;;9.13;60.95;98899.03;5054384;28;20387;-62
2021/05/05 06:50:57;;;;;;;6.78;6.05;;;;;;;9.11;61.54;98901.34;5054846;28;20517;-62
2021/05/05 06:53:24;;;;;;;7.07;5.88;;;;;;;8.96;61.67;98899.22;5051635;28;20059;-62
2021/05/05 06:55:51;;;;;;;7.47;6.68;;;;;;;9.13;62.15;98896.25;5032927;28;20512;-63
2021/05/05 06:58:19;;;;;;;8.82;6.97;;;;;;;9.26;63.00;98899.88;5029610;28;20046;-63
2021/05/05 07:00:47;;;;;;;9.40;6.95;;;;;;;9.15;62.21;98899.50;5031291;28;20049;-63
2021/05/05 07:03:14;;;;;;;11.27;8.52;;;;;;;9.01;64.66;98899.00;5036535;28;20056;-63
2021/05/05 07:05:41;;;;;;;12.32;9.45;;;;;;;8.91;64.98;98900.25;5036281;28;20060;-63
2021/05/05 07:08:08;;;;;;;9.75;8.73;;;;;;;8.69;65.10;98895.88;5032519;28;20060;-63
2021/05/05 07:10:36;;;;;;;9.20;8.02;;;;;;;8.60;65.03;98918.16;5030277;28;20057;-63
2021/05/05 07:13:03;;;;;;;12.98;9.27;;;;;;;8.32;65.90;98909.56;5031883;28;20402;-63
2021/05/05 07:15:31;;;;;;;14.30;10.57;;;;;;;8.31;66.91;98919.00;5035121;28;20128;-63
2021/05/05 07:17:59;;;;;;;11.77;9.15;;;;;;;8.36;66.97;98918.00;5027835;28;20060;-60
2021/05/05 07:20:26;;;;;;;15.07;9.63;;;;;;;8.45;67.63;98918.78;5031397;28;20057;-62
2021/05/05 07:22:53;;;;;;;13.90;9.77;;;;;;;8.38;68.67;98929.56;5030502;28;20054;-63
2021/05/05 07:25:20;;;;;;;12.45;7.72;;;;;;;8.30;69.77;98942.38;5032779;28;20060;-63
2021/05/05 07:27:47;;;;;;;7.13;6.10;;;;;;;8.16;70.30;98945.38;5031519;28;20049;-63
2021/05/05 07:30:15;;;;;;;6.88;5.45;;;;;;;8.11;69.31;98953.91;5033509;28;20058;-63
2021/05/05 07:32:42;;;;;;;7.80;5.18;;;;;;;8.08;68.96;98955.41;5030098;28;20486;-63
2021/05/05 07:35:10;;;;;;;4.20;2.90;;;;;;;8.04;68.69;98965.53;5037507;28;20045;-63
2021/05/05 07:41:07;;;;;;;4.90;3.30;;;;;;;7.92;67.21;98960.69;5034125;28;20524;-63
2021/05/05 07:46:10;;;;;;;4.65;4.03;;;;;;;7.92;68.14;98980.09;4997788;28;20049;-63
2021/05/05 07:48:40;;;;;;;6.38;4.15;;;;;;;7.88;67.90;98973.59;5029586;28;20062;-63
2021/05/05 07:51:09;;;;;;;11.90;4.10;;;;;;;7.96;68.95;98983.03;5024457;28;20049;-64
2021/05/05 07:53:38;;;;;;;4.00;3.10;;;;;;;7.82;67.90;98971.34;5030181;28;20064;-64
2021/05/05 07:56:05;;;;;;;3.80;2.78;;;;;;;7.94;66.65;98982.56;5029347;28;20468;-64
2021/05/05 07:58:32;;;;;;;3.72;3.00;;;;;;;8.05;66.23;98978.25;5029534;28;20060;-64
2021/05/05 08:00:58;;;;;;;3.45;2.60;;;;;;;8.11;65.41;98976.91;5029417;28;20053;-64
2021/05/05 08:03:25;;;;;;;5.45;3.08;;;;;;;8.10;65.00;98975.25;5025189;28;20413;-64
2021/05/05 08:05:53;;;;;;;4.78;3.65;;;;;;;8.29;65.00;98988.72;5029505;28;20056;-62
2021/05/05 08:08:20;;;;;;;4.63;3.70;;;;;;;8.47;65.55;98985.88;5031864;28;20452;-63
2021/05/05 08:10:47;;;;;;;5.18;4.00;;;;;;;8.72;64.39;98987.63;5031844;28;20064;-63
2021/05/05 08:13:14;;;;;;;4.10;3.63;;;;;;;8.93;63.34;98976.50;5000537;28;889133;-63
2021/05/05 08:15:41;;;;;;;5.97;4.20;;;;;;;9.12;62.42;98986.31;5033148;28;20516;-63
2021/05/05 08:18:11;;;;;;;6.00;4.43;;;;;;;9.55;62.28;98994.22;5037618;28;20072;-63
2021/05/05 08:20:39;;;;;;;5.35;4.13;;;;;;;10.09;61.50;98984.88;5038227;28;20053;-63
2021/05/05 08:23:07;;;;;;;6.38;4.95;;;;;;;10.36;60.65;98986.16;5033848;28;20057;-63
2021/05/05 08:25:37;;;;;;;6.45;5.13;;;;;;;10.37;60.48;98992.53;5032111;28;20080;-63
2021/05/05 08:28:04;;;;;;;4.95;4.03;;;;;;;10.24;60.99;99004.81;5029614;28;20060;-63
2021/05/05 08:30:32;;;;;;;5.63;4.50;;;;;;;9.91;60.54;99011.28;5033035;28;20072;-63
2021/05/05 08:32:59;;;;;;;3.75;3.35;;;;;;;9.72;60.67;99012.66;5039409;28;20057;-63
2021/05/05 08:35:26;;;;;;;5.18;3.55;;;;;;;10.04;58.76;99012.94;5025015;28;20054;-64
2021/05/05 08:37:53;;;;;;;3.55;3.20;;;;;;;10.61;58.43;99013.19;5037367;28;20057;-64
2021/05/05 08:40:21;;;;;;;4.05;3.10;;;;;;;11.58;55.33;99016.78;5036701;28;20049;-64
2021/05/05 08:42:50;;;;;;;3.95;2.58;;;;;;;11.57;55.09;99009.59;5032343;28;20060;-63
2021/05/05 08:45:18;;;;;;;2.65;2.20;;;;;;;11.55;53.48;99017.50;5032305;28;20046;-63
2021/05/05 08:47:47;;;;;;;3.03;2.05;;;;;;;12.06;52.08;99022.44;5033699;28;20056;-66
2021/05/05 08:50:16;;;;;;;2.80;1.92;;;;;;;12.22;51.66;99016.81;5031447;28;20060;-64
2021/05/05 08:52:44;;;;;;;2.42;1.73;;;;;;;12.51;49.40;99013.53;5029375;28;20064;-65
2021/05/05 08:55:14;;;;;;;3.72;2.10;;;;;;;12.89;48.17;99014.00;5028241;28;20057;-65
2021/05/05 08:57:41;;;;;;;2.20;1.90;;;;;;;13.58;46.28;99017.03;5038256;28;20061;-65
2021/05/05 09:00:12;;;;;;;4.28;2.33;;;;;;;14.63;44.44;99014.84;5028992;28;20057;-65
2021/05/05 09:02:41;;;;;;;3.85;2.10;;;;;;;15.58;43.66;99015.66;5030950;28;20064;-63
2021/05/05 09:05:12;;;;;;;3.35;2.20;;;;;;;16.28;39.08;99011.16;5028788;28;20049;-63
2021/05/05 09:07:41;;;;;;;2.33;1.58;;;;;;;17.49;38.45;99020.72;5029504;28;20064;-62
2021/05/05 09:10:10;;;;;;;2.40;1.85;;;;;;;18.70;35.41;99013.63;5018422;28;20494;-62
2021/05/05 09:12:38;;;;;;;2.37;1.30;;;;;;;19.87;32.70;99001.13;5031654;28;20418;-62
2021/05/05 09:15:08;;;;;;;2.30;2.10;;;;;;;20.31;31.34;99003.66;5030253;28;20057;-62
2021/05/05 09:17:37;;;;;;;2.25;1.80;;;;;;;22.00;27.74;99011.03;5043938;28;20148;-62
2021/05/05 09:20:24;;;;;;;1.55;0.90;;;;;;;21.98;26.04;99013.50;5042603;28;20044;-62
2021/05/05 09:22:54;;;;;;;5.40;2.80;;;;;;;23.29;26.39;99003.16;5030444;28;20054;-62
2021/05/05 09:25:23;;;;;;;2.97;1.73;;;;;;;24.69;23.75;99000.75;5028709;28;20045;-62
2021/05/05 09:28:12;;;;;;;;;;;;;;;25.38;22.54;99010.28;5031662;28;20056;-62
2021/05/05 09:30:40;;;;;;;2.58;1.50;;;;;;;22.61;26.12;99027.91;5038665;28;19928;-62
2021/05/05 09:33:08;;;;;;;2.85;1.90;;;;;;;21.62;28.11;99039.50;5042319;28;20053;-62
2021/05/05 09:35:37;;;;;;;3.80;1.80;;;;;;;19.88;30.04;99044.31;5042026;28;20057;-62
2021/05/05 09:38:07;;;;;;;3.37;1.70;;;;;;;18.44;32.75;99036.22;5049946;28;20049;-62
2021/05/05 09:40:35;;;;;;;3.67;1.70;;;;;;;17.77;34.43;99042.56;5047533;28;20041;-62
2021/05/05 09:43:16;;;;;;;5.20;1.92;;;;;;;16.76;36.00;99050.47;5040153;28;20050;-62
2021/05/05 09:45:43;;;;;;;4.10;2.00;;;;;;;16.07;37.78;99051.13;5043249;28;20156;-62
2021/05/05 09:48:12;;;;;;;3.38;2.15;;;;;;;17.35;36.23;99044.81;5048336;28;20387;-63
2021/05/05 09:50:41;;;;;;;5.18;2.20;;;;;;;17.46;34.30;99039.22;5040538;28;20045;-63
2021/05/05 09:53:20;;;;;;;4.72;2.78;;;;;;;17.10;35.38;99041.88;5044005;28;20049;-63
2021/05/05 09:56:06;;;;;;;5.28;2.85;;;;;;;16.75;35.82;99051.66;5041632;28;20065;-64
2021/05/05 09:58:35;;;;;;;3.42;2.35;;;;;;;16.30;37.65;99047.31;5034737;28;20072;-63
2021/05/05 10:01:24;;;;;;;6.00;2.40;;;;;;;15.30;38.92;99058.22;5034644;28;20057;-63
2021/05/05 10:03:53;;;;;;;5.45;3.20;;;;;;;14.88;40.16;99060.06;5023570;28;20061;-63
2021/05/05 10:06:28;;;;;;;4.68;2.30;;;;;;;14.52;40.90;99059.47;5036468;28;20076;-63
2021/05/05 10:08:57;;;;;;;5.45;2.70;;;;;;;14.84;40.45;99061.19;5036994;28;20504;-63
2021/05/05 10:11:26;;;;;;;6.43;3.17;;;;;;;14.22;42.26;99056.59;5040043;28;20486;-63
2021/05/05 10:13:55;;;;;;;4.50;2.58;;;;;;;13.98;43.17;99049.34;5033728;28;20061;-63
2021/05/05 10:16:24;;;;;;;5.40;2.63;;;;;;;13.75;44.77;99078.16;5037055;28;20065;-63
2021/05/05 10:18:55;;;;;;;6.32;3.13;;;;;;;13.44;45.21;99075.50;5033532;28;20448;-63
2021/05/05 10:21:27;;;;;;;5.20;3.30;;;;;;;13.15;47.01;99083.25;5033320;28;20054;-63
2021/05/05 10:23:57;;;;;;;5.35;3.42;;;;;;;12.96;48.78;99103.59;5040391;28;20059;-63
2021/05/05 10:26:26;;;;;;;5.55;4.05;;;;;;;14.37;46.19;99094.06;5034653;28;20484;-63
2021/05/05 10:28:53;;;;;;;5.10;3.00;;;;;;;14.17;45.93;99105.31;5033733;28;20096;-63
2021/05/05 10:31:23;;;;;;;8.00;4.43;;;;;;;13.88;45.90;99108.75;5033551;28;20076;-63
2021/05/05 10:33:52;;;;;;;6.57;3.65;;;;;;;13.39;46.58;99105.38;5034382;28;20153;-63
2021/05/05 10:36:39;;;;;;;8.55;4.90;;;;;;;13.04;47.81;99110.16;5040710;28;20062;-63
2021/05/05 10:39:31;;;;;;;8.25;5.85;;;;;;;17.50;38.58;99101.97;5033620;28;20501;-63
2021/05/05 10:42:13;;;;;;;7.80;4.20;;;;;;;17.35;38.47;99106.72;5032836;28;20053;-63
2021/05/05 10:44:42;;;;;;;5.85;3.10;;;;;;;18.28;36.55;99105.47;5043270;28;20057;-63
2021/05/05 10:47:21;;;;;;;5.30;2.85;;;;;;;17.39;36.39;99107.56;5035193;28;20057;-64
2021/05/05 10:50:16;;;;;;;5.07;3.67;;;;;;;19.18;32.37;99123.22;5037588;28;20377;-63
2021/05/05 10:53:05;;;;;;;4.03;2.88;;;;;;;21.24;28.52;99111.13;5043706;28;20057;-64
2021/05/05 10:55:38;;;;;;;5.57;2.60;;;;;;;23.15;24.82;99109.31;5042883;28;20494;-64
2021/05/05 10:58:11;;;;;;;4.80;2.25;;;;;;;22.44;26.02;99122.66;5023649;28;20041;-63
2021/05/05 11:00:49;;;;;;;5.97;2.88;;;;;;;21.91;26.18;99124.97;5031654;28;20045;-63
2021/05/05 11:03:17;;;;;;;3.50;2.55;;;;;;;23.25;24.17;99125.38;5032933;28;20498;-63
2021/05/05 11:05:48;;;;;;;4.43;2.65;;;;;;;23.71;24.09;99137.09;5030528;28;20053;-64
2021/05/05 11:08:28;;;;;;;4.78;2.40;;;;;;;22.36;25.12;99138.97;5047022;28;20045;-63
2021/05/05 11:10:57;;;;;;;4.13;2.38;;;;;;;20.92;27.52;99136.94;5042743;28;20065;-63
2021/05/05 11:13:41;;;;;;;3.80;2.15;;;;;;;20.45;27.96;99154.25;5032559;28;20102;-63
2021/05/05 11:16:09;;;;;;;4.68;2.00;;;;;;;20.18;27.86;99147.50;5034544;28;20375;-63
2021/05/05 11:18:47;;;;;;;3.15;1.50;;;;;;;18.77;29.77;99144.22;5026833;28;20132;-63
2021/05/05 11:21:44;;;;;;;3.70;2.13;;;;;;;18.02;31.28;99144.06;5040424;28;20064;-63
2021/05/05 11:24:29;;;;;;;5.55;1.65;;;;;;;18.30;29.81;99170.72;4933793;29;20095;-63
2021/05/05 11:26:56;;;;;;;4.45;2.55;;;;;;;18.29;31.03;99163.44;5022957;28;20064;-63
2021/05/05 11:29:38;;;;;;;4.28;2.10;;;;;;;21.26;27.03;99167.38;5044009;28;20056;-63
2021/05/05 11:32:12;;;;;;;5.70;2.17;;;;;;;20.52;26.89;99181.66;5034509;28;20053;-61
2021/05/05 11:34:41;;;;;;;4.80;1.70;;;;;;;19.42;28.37;99186.50;5041095;28;20057;-63
2021/05/05 11:37:14;;;;;;;5.28;1.90;;;;;;;18.07;30.53;99202.84;5052102;28;20045;-63
2021/05/05 11:39:43;;;;;;;5.10;1.83;;;;;;;17.01;33.27;99202.56;5049166;28;20052;-62
2021/05/05 11:42:12;;;;;;;4.00;1.88;;;;;;;16.07;35.67;99222.47;5053967;28;20068;-62
2021/05/05 11:44:42;;;;;;;4.65;2.63;;;;;;;15.30;37.21;99221.75;5035755;28;20060;-62
2021/05/05 11:47:11;;;;;;;4.60;2.88;;;;;;;14.85;38.96;99226.22;5033437;28;20065;-64
2021/05/05 11:49:40;;;;;;;5.88;2.65;;;;;;;14.24;40.49;99236.28;5036436;28;20490;-62
2021/05/05 11:52:22;;;;;;;4.50;2.63;;;;;;;13.60;42.05;99255.28;5031898;28;20042;-62
2021/05/05 11:54:51;;;;;;;6.68;3.00;;;;;;;13.14;45.40;99255.75;5033724;28;20057;-62